Time;durP1;ratioP1;P1;durP2;ratioP2;P2;SDS_P1;SDS_P2;PMS_P1;PMS_P2;Temp;Humidity;BMP_temperature;BMP_pressure;BME280_temperature;BME280_humidity;BME280_pressure;Samples;Min_cycle;Max_cycle;Signal;HPM_P1;HPM_P2
2022/04/07 00:00:21;;;;;;;6.93;3.97;;;;;;;8.81;92.55;98671.38;4969606;28;20046;-88
2022/04/07 00:02:48;;;;;;;4.85;4.32;;;;;;;8.76;92.65;98650.63;4963633;28;20080;-86
2022/04/07 00:05:18;;;;;;;4.45;4.10;;;;;;;8.77;91.92;98655.81;4974767;28;20156;-89
2022/04/07 00:07:46;;;;;;;7.15;5.25;;;;;;;8.74;92.44;98645.47;4970368;28;20060;-87
2022/04/07 00:10:14;;;;;;;5.97;4.25;;;;;;;8.77;91.44;98641.91;4969178;28;20062;-88
2022/04/07 00:12:46;;;;;;;5.25;4.43;;;;;;;8.85;89.97;98631.22;4967767;28;20135;-87
2022/04/07 00:15:13;;;;;;;4.65;4.22;;;;;;;8.89;89.72;98614.53;4959500;28;20165;-85
2022/04/07 00:17:40;;;;;;;5.05;4.55;;;;;;;8.86;89.43;98620.72;4982276;28;20046;-86
2022/04/07 00:20:09;;;;;;;6.05;4.57;;;;;;;8.81;88.71;98603.53;4983306;28;20084;-85
2022/04/07 00:22:38;;;;;;;4.70;4.30;;;;;;;8.78;88.72;98609.72;4977571;28;20489;-85
2022/04/07 00:25:09;;;;;;;5.75;4.38;;;;;;;8.77;88.65;98598.44;4967681;28;20082;-86
2022/04/07 00:27:37;;;;;;;5.07;3.65;;;;;;;8.78;87.94;98592.28;4987336;28;20061;-88
2022/04/07 00:30:09;;;;;;;5.43;3.55;;;;;;;8.77;88.08;98585.38;4989949;28;20049;-84
2022/04/07 00:32:45;;;;;;;8.88;4.13;;;;;;;8.72;87.87;98589.03;4984058;28;20061;-86
2022/04/07 00:35:13;;;;;;;4.18;3.80;;;;;;;8.67;87.96;98570.09;4987411;28;20428;-87
2022/04/07 00:37:49;;;;;;;6.35;3.90;;;;;;;8.64;87.92;98575.41;4987659;28;20042;-83
2022/04/07 00:40:18;;;;;;;5.65;3.75;;;;;;;8.62;88.19;98575.47;4994347;28;20043;-87
2022/04/07 00:42:47;;;;;;;3.22;2.92;;;;;;;8.60;87.87;98566.84;4970284;28;20053;-90
2022/04/07 00:45:16;;;;;;;7.20;4.00;;;;;;;8.65;87.26;98569.31;5002274;28;20070;-86
2022/04/07 00:47:44;;;;;;;5.25;4.25;;;;;;;8.72;87.06;98555.13;5000354;28;20083;-89
2022/04/07 00:50:20;;;;;;;4.25;3.80;;;;;;;8.76;86.53;98544.53;4981636;28;20066;-90
2022/04/07 00:52:56;;;;;;;6.68;4.45;;;;;;;8.83;85.99;98534.75;4997896;28;20050;-87
2022/04/07 00:55:29;;;;;;;3.95;3.20;;;;;;;8.88;85.51;98525.00;4993575;28;20755;-86
2022/04/07 00:57:59;;;;;;;4.47;3.57;;;;;;;8.96;84.71;98529.94;4983437;28;20051;-85
2022/04/07 01:00:26;;;;;;;5.88;3.20;;;;;;;9.00;84.24;98531.53;4980824;28;20895;-86
2022/04/07 01:02:54;;;;;;;4.57;3.47;;;;;;;9.03;84.46;98535.78;4963450;28;20053;-83
2022/04/07 01:05:23;;;;;;;4.50;3.00;;;;;;;9.08;83.71;98523.41;4977315;28;20038;-84
2022/04/07 01:07:51;;;;;;;5.05;3.00;;;;;;;9.09;83.70;98525.13;4961982;28;20484;-83
2022/04/07 01:10:21;;;;;;;4.45;3.20;;;;;;;9.13;83.12;98533.69;4978027;28;20133;-85
2022/04/07 01:12:50;;;;;;;8.80;3.80;;;;;;;9.18;83.81;98527.38;4980659;28;20064;-87
2022/04/07 01:15:20;;;;;;;6.72;3.22;;;;;;;9.11;85.57;98531.09;4965630;28;20746;-86
2022/04/07 01:17:48;;;;;;;4.47;2.85;;;;;;;9.03;86.15;98515.72;4986398;28;20117;-86
2022/04/07 01:20:19;;;;;;;6.13;2.75;;;;;;;8.99;87.03;98524.59;4949886;28;20681;-86
2022/04/07 01:22:47;;;;;;;4.65;2.53;;;;;;;9.02;86.49;98539.28;5003024;28;20052;-88
2022/04/07 01:25:19;;;;;;;9.23;3.17;;;;;;;8.94;88.36;98535.22;4984921;28;20173;-87
2022/04/07 01:27:49;;;;;;;3.40;2.75;;;;;;;8.92;88.11;98544.00;4985277;28;20049;-86
2022/04/07 01:30:18;;;;;;;3.83;2.20;;;;;;;8.93;87.60;98519.63;4988972;28;20120;-86
2022/04/07 01:32:56;;;;;;;2.90;2.40;;;;;;;8.90;87.51;98517.09;4974504;28;20050;-86
2022/04/07 01:35:23;;;;;;;1.95;1.85;;;;;;;8.91;87.17;98516.19;4987514;28;20080;-87
2022/04/07 01:37:51;;;;;;;1.58;1.48;;;;;;;8.92;87.26;98491.81;4989897;28;20051;-86
2022/04/07 01:40:29;;;;;;;2.80;1.92;;;;;;;8.88;88.03;98506.72;4970787;28;20050;-87
2022/04/07 01:42:58;;;;;;;4.43;1.88;;;;;;;8.86;88.01;98490.25;4982142;28;20053;-87
2022/04/07 01:45:27;;;;;;;1.65;1.55;;;;;;;8.85;88.72;98490.31;4993453;28;20066;-87
2022/04/07 01:47:55;;;;;;;3.47;2.13;;;;;;;8.82;89.46;98485.22;5001195;28;20053;-86
2022/04/07 01:50:25;;;;;;;1.70;1.60;;;;;;;8.78;89.81;98482.72;5010551;28;20093;-87
2022/04/07 01:52:53;;;;;;;4.00;2.67;;;;;;;8.77;90.21;98468.00;5007872;28;20049;-85
2022/04/07 01:55:20;;;;;;;3.97;1.55;;;;;;;8.75;89.66;98477.63;4989891;28;20084;-85
2022/04/07 01:57:50;;;;;;;1.88;1.77;;;;;;;8.74;90.01;98477.69;4992752;28;20079;-85
2022/04/07 02:00:20;;;;;;;3.00;1.75;;;;;;;8.76;89.72;98457.59;4998658;28;20081;-86
2022/04/07 02:02:49;;;;;;;3.55;1.92;;;;;;;8.75;90.25;98461.97;4990665;28;20050;-87
2022/04/07 02:05:19;;;;;;;4.00;1.67;;;;;;;8.73;91.00;98458.56;4994684;28;20065;-86
2022/04/07 02:07:46;;;;;;;2.47;1.73;;;;;;;8.71;91.91;98460.38;4996652;28;20150;-86
2022/04/07 02:10:15;;;;;;;3.55;1.50;;;;;;;8.65;93.70;98465.81;4982378;28;20679;-85
2022/04/07 02:12:44;;;;;;;4.28;1.60;;;;;;;8.56;94.17;98458.34;4979911;28;20350;-85
2022/04/07 02:15:12;;;;;;;1.60;1.50;;;;;;;8.52;95.24;98451.53;4976105;28;20088;-86
2022/04/07 02:17:42;;;;;;;3.55;1.85;;;;;;;8.46;95.98;98450.00;4975490;28;20123;-86
2022/04/07 02:20:11;;;;;;;7.13;2.60;;;;;;;8.46;96.47;98447.41;4989890;28;20138;-87
2022/04/07 02:22:45;;;;;;;2.28;1.83;;;;;;;8.43;96.85;98442.25;5004721;28;20060;-85
2022/04/07 02:25:13;;;;;;;3.00;1.73;;;;;;;8.42;97.07;98438.78;4990045;28;20112;-86
2022/04/07 02:27:42;;;;;;;2.55;2.00;;;;;;;8.42;97.77;98430.09;4971754;28;20050;-89
2022/04/07 02:30:13;;;;;;;2.63;2.05;;;;;;;8.39;97.50;98425.84;4988378;28;20168;-85
2022/04/07 02:32:43;;;;;;;2.63;2.42;;;;;;;8.33;97.84;98426.09;4983861;28;20042;-86
2022/04/07 02:35:13;;;;;;;2.80;1.52;;;;;;;8.29;97.74;98419.25;4961803;28;20128;-88
2022/04/07 02:37:40;;;;;;;1.50;1.40;;;;;;;8.22;97.67;98407.38;4976306;28;20041;-85
2022/04/07 02:40:07;;;;;;;2.30;1.50;;;;;;;8.10;98.42;98404.28;5002395;28;20112;-84
2022/04/07 02:42:38;;;;;;;2.03;1.83;;;;;;;8.09;97.30;98402.56;4988056;28;20502;-85
2022/04/07 02:45:07;;;;;;;1.83;1.58;;;;;;;8.04;97.21;98393.22;4987818;28;20050;-86
2022/04/07 02:47:39;;;;;;;1.48;1.30;;;;;;;7.97;97.19;98395.19;5009901;28;20140;-85
2022/04/07 02:52:48;;;;;;;2.92;0.98;;;;;;;8.06;94.70;98374.03;4978141;28;20052;-87
2022/04/07 02:55:19;;;;;;;1.98;0.85;;;;;;;8.11;94.00;98379.09;4992442;28;20057;-86
2022/04/07 02:57:48;;;;;;;2.72;0.85;;;;;;;8.20;93.83;98364.84;4998664;28;20046;-90
2022/04/07 03:00:16;;;;;;;5.18;1.00;;;;;;;8.27;92.45;98359.38;4991955;28;20076;-86
2022/04/07 03:02:46;;;;;;;2.45;0.88;;;;;;;8.31;92.18;98352.28;5005076;28;20042;-88
2022/04/07 03:05:15;;;;;;;0.73;0.73;;;;;;;8.37;91.04;98349.47;5011588;28;20050;-88
2022/04/07 03:07:42;;;;;;;2.47;1.08;;;;;;;8.37;90.82;98326.00;5002124;28;20101;-85
2022/04/07 03:12:54;;;;;;;1.15;0.95;;;;;;;8.23;91.60;98339.53;5006404;28;20145;-89
2022/04/07 03:15:23;;;;;;;3.17;0.90;;;;;;;8.19;91.42;98324.09;4993115;28;20111;-87
2022/04/07 03:17:50;;;;;;;1.17;0.80;;;;;;;8.15;91.34;98338.09;4994392;28;20045;-84
2022/04/07 03:20:17;;;;;;;1.90;0.90;;;;;;;8.17;90.98;98336.31;5003333;28;20046;-86
2022/04/07 03:22:48;;;;;;;1.42;1.15;;;;;;;8.23;90.18;98342.16;5002258;28;20058;-87
2022/04/07 03:25:15;;;;;;;1.95;1.30;;;;;;;8.31;89.76;98318.41;4998791;28;20045;-88
2022/04/07 03:27:43;;;;;;;1.98;0.60;;;;;;;8.37;88.97;98327.75;4993036;28;20073;-88
2022/04/07 03:30:11;;;;;;;3.53;0.88;;;;;;;8.40;88.68;98327.66;4992448;28;20100;-85
2022/04/07 03:32:38;;;;;;;1.17;0.65;;;;;;;8.48;87.09;98319.56;4968665;28;20052;-86
2022/04/07 03:35:06;;;;;;;2.55;0.65;;;;;;;8.51;86.72;98320.28;4987374;28;20152;-88
2022/04/07 03:37:32;;;;;;;3.05;1.05;;;;;;;8.57;85.75;98308.78;5002907;28;20058;-86
2022/04/07 03:39:59;;;;;;;2.00;0.98;;;;;;;8.57;85.62;98306.19;4986497;28;20054;-87
2022/04/07 03:42:26;;;;;;;3.67;0.90;;;;;;;8.62;85.12;98301.63;4983575;28;20647;-87
2022/04/07 03:44:55;;;;;;;2.67;0.70;;;;;;;8.64;83.54;98284.16;4971373;28;20567;-86
2022/04/07 03:47:24;;;;;;;3.30;0.80;;;;;;;8.69;83.14;98299.63;4967648;28;20045;-87
2022/04/07 03:49:55;;;;;;;1.75;0.80;;;;;;;8.74;81.92;98289.88;4999957;28;20105;-88
2022/04/07 03:52:22;;;;;;;1.45;1.00;;;;;;;8.78;81.77;98292.28;4983025;28;20042;-88
2022/04/07 03:54:50;;;;;;;3.08;1.10;;;;;;;8.75;82.48;98287.19;4996159;28;20057;-87
2022/04/07 03:59:58;;;;;;;5.53;1.25;;;;;;;8.85;81.13;98281.59;4988523;28;20156;-86
2022/04/07 04:02:25;;;;;;;4.07;1.27;;;;;;;8.84;81.32;98265.13;4986488;28;20077;-86
2022/04/07 04:04:52;;;;;;;2.67;1.02;;;;;;;8.84;81.51;98272.09;4987089;28;20796;-88
2022/04/07 04:07:19;;;;;;;3.55;1.13;;;;;;;8.82;81.39;98264.31;4990006;28;20049;-85
2022/04/07 04:09:46;;;;;;;2.45;0.75;;;;;;;8.81;81.68;98262.63;4989137;28;20048;-86
2022/04/07 04:12:14;;;;;;;1.35;0.85;;;;;;;8.80;81.64;98254.84;4986763;28;20042;-85
2022/04/07 04:14:41;;;;;;;0.68;0.60;;;;;;;8.78;81.77;98242.72;5000129;28;20071;-85
2022/04/07 04:17:10;;;;;;;2.20;1.23;;;;;;;8.79;81.86;98230.53;4985786;28;20045;-88
2022/04/07 04:19:39;;;;;;;1.42;1.10;;;;;;;8.74;82.41;98232.50;4970198;28;20070;-87
2022/04/07 04:22:10;;;;;;;6.45;1.05;;;;;;;8.73;82.14;98230.78;4950228;28;20052;-85
2022/04/07 04:24:41;;;;;;;2.72;0.75;;;;;;;8.74;82.38;98222.06;5002087;28;21001;-85
2022/04/07 04:27:08;;;;;;;1.15;0.82;;;;;;;8.73;82.65;98223.78;4986456;28;20049;-85
2022/04/07 04:29:35;;;;;;;0.93;0.90;;;;;;;8.73;82.48;98222.97;4972348;28;20061;-87
2022/04/07 04:32:02;;;;;;;1.75;0.82;;;;;;;8.75;82.29;98206.34;4986891;28;20046;-85
2022/04/07 04:34:32;;;;;;;0.77;0.70;;;;;;;8.76;82.74;98207.16;4989289;28;20069;-85
2022/04/07 04:36:58;;;;;;;1.17;0.60;;;;;;;8.80;82.98;98202.69;4966820;28;20050;-84
2022/04/07 04:39:28;;;;;;;1.42;1.15;;;;;;;8.75;83.12;98203.72;4964254;28;20066;-86
2022/04/07 04:41:58;;;;;;;2.80;1.02;;;;;;;8.74;83.28;98185.53;4954002;28;20125;-85
2022/04/07 04:44:29;;;;;;;1.60;0.82;;;;;;;8.77;82.57;98198.44;5009322;28;20079;-87
2022/04/07 04:46:56;;;;;;;2.08;1.00;;;;;;;8.81;82.08;98199.16;4986669;28;20128;-84
2022/04/07 04:49:25;;;;;;;1.90;1.08;;;;;;;8.82;81.59;98185.22;4973035;28;20408;-87
2022/04/07 04:51:55;;;;;;;2.50;0.93;;;;;;;8.85;80.94;98190.31;4999907;28;20069;-86
2022/04/07 04:54:23;;;;;;;1.27;1.08;;;;;;;8.88;80.84;98183.19;4985427;28;20053;-84
2022/04/07 04:56:52;;;;;;;3.25;0.77;;;;;;;8.91;80.27;98177.00;4999451;28;20085;-84
2022/04/07 04:59:25;;;;;;;4.43;1.25;;;;;;;8.92;80.50;98187.38;5001597;28;20544;-86
2022/04/07 05:01:51;;;;;;;1.33;0.60;;;;;;;8.90;80.66;98183.13;4983482;28;20079;-84
2022/04/07 05:04:18;;;;;;;2.90;0.85;;;;;;;8.88;80.69;98183.19;5000613;28;20049;-86
2022/04/07 05:06:45;;;;;;;1.45;1.40;;;;;;;8.89;80.39;98177.06;4986366;28;20041;-86
2022/04/07 05:09:11;;;;;;;1.75;0.63;;;;;;;8.88;80.71;98162.34;4986123;28;20045;-86
2022/04/07 05:11:39;;;;;;;1.25;0.63;;;;;;;8.90;80.75;98157.03;4973920;28;20050;-85
2022/04/07 05:14:09;;;;;;;0.57;0.52;;;;;;;8.94;80.03;98151.66;5005594;28;20131;-88
2022/04/07 05:16:36;;;;;;;1.60;0.70;;;;;;;8.96;80.39;98141.13;4989717;28;20049;-84
2022/04/07 05:19:05;;;;;;;2.65;1.08;;;;;;;8.97;80.36;98142.84;4989178;28;20043;-83
2022/04/07 05:24:17;;;;;;;2.40;0.73;;;;;;;8.96;80.57;98122.88;5004470;28;20049;-86
2022/04/07 05:26:47;;;;;;;3.90;0.63;;;;;;;9.00;79.78;98121.81;4973561;28;20053;-86
2022/04/07 05:29:14;;;;;;;1.05;0.70;;;;;;;9.00;80.32;98113.16;4990477;28;20046;-85
2022/04/07 05:31:46;;;;;;;3.05;1.08;;;;;;;9.04;79.00;98114.72;4989459;28;20077;-83
2022/04/07 05:34:13;;;;;;;2.40;1.10;;;;;;;9.08;79.09;98101.44;4997367;28;20053;-89
2022/04/07 05:36:42;;;;;;;1.45;0.80;;;;;;;9.22;77.61;98113.06;4972306;28;20034;-90
2022/04/07 05:39:08;;;;;;;1.92;0.50;;;;;;;9.25;77.23;98110.31;4988429;28;20062;-87
2022/04/07 05:41:36;;;;;;;3.38;0.52;;;;;;;9.27;77.19;98098.88;4971890;28;20110;-89
2022/04/07 05:44:03;;;;;;;2.47;0.65;;;;;;;9.26;77.33;98097.19;5008438;28;20117;-90
2022/04/07 05:46:30;;;;;;;3.53;1.27;;;;;;;9.26;77.43;98098.94;4975599;28;20039;-88
2022/04/07 05:48:57;;;;;;;2.75;0.52;;;;;;;9.35;76.64;98092.47;4985786;28;20107;-86
2022/04/07 05:54:07;;;;;;;2.13;0.50;;;;;;;9.44;76.34;98073.78;5000093;28;20057;-87
2022/04/07 05:56:34;;;;;;;1.48;0.85;;;;;;;9.47;76.01;98072.78;4980789;28;20053;-86
2022/04/07 05:59:07;;;;;;;2.28;0.60;;;;;;;9.49;75.49;98077.03;4977207;28;20046;-84
2022/04/07 06:01:35;;;;;;;2.28;0.50;;;;;;;9.54;74.51;98061.13;4972812;28;20047;-89
2022/04/07 06:04:03;;;;;;;1.77;1.02;;;;;;;9.57;73.80;98066.22;4973081;28;20046;-86
2022/04/07 06:06:30;;;;;;;1.17;0.50;;;;;;;9.60;74.07;98045.19;4971508;28;20490;-85
2022/04/07 06:08:57;;;;;;;3.67;1.00;;;;;;;9.62;74.08;98058.16;4955928;28;20064;-84
2022/04/07 06:11:24;;;;;;;1.10;0.55;;;;;;;9.72;72.33;98047.19;4968069;28;20137;-87
2022/04/07 06:13:51;;;;;;;2.80;0.52;;;;;;;9.77;72.50;98041.78;4970777;28;20049;-85
2022/04/07 06:16:24;;;;;;;1.25;0.52;;;;;;;9.83;72.27;98032.78;4972311;28;20112;-86
2022/04/07 06:18:52;;;;;;;5.45;1.00;;;;;;;9.86;72.09;98027.44;4973278;28;20093;-85
2022/04/07 06:21:24;;;;;;;5.85;0.60;;;;;;;9.85;71.85;98004.81;4973717;28;20093;-85
2022/04/07 06:26:33;;;;;;;3.60;0.57;;;;;;;9.77;72.56;98013.88;4993252;28;20047;-86
2022/04/07 06:31:41;;;;;;;4.25;0.77;;;;;;;9.54;73.51;97978.44;4977466;28;20088;-86
2022/04/07 06:34:11;;;;;;;4.03;0.98;;;;;;;9.67;72.12;97978.66;4953488;28;20061;-86
2022/04/07 06:36:56;;;;;;;2.45;0.73;;;;;;;9.88;72.07;97968.09;4969182;28;20489;-87
2022/04/07 06:39:23;;;;;;;2.55;0.30;;;;;;;10.18;70.25;97947.44;4956556;28;20559;-85
2022/04/07 06:41:50;;;;;;;1.55;0.47;;;;;;;10.42;68.94;97942.72;4988325;28;20484;-84
2022/04/07 06:44:19;;;;;;;2.53;0.50;;;;;;;10.63;67.52;97936.47;4990370;28;20041;-86
2022/04/07 06:46:50;;;;;;;3.35;0.75;;;;;;;10.60;67.59;97916.53;4988689;28;20139;-85
2022/04/07 06:49:22;;;;;;;3.13;0.28;;;;;;;10.55;68.07;97936.88;4976134;28;20041;-87
2022/04/07 06:51:51;;;;;;;5.15;0.60;;;;;;;10.54;67.55;97903.78;4994257;28;20103;-84
2022/04/07 06:54:17;;;;;;;0.65;0.40;;;;;;;10.54;67.54;97906.41;4972638;28;20152;-84
2022/04/07 06:56:46;;;;;;;2.40;0.55;;;;;;;10.52;67.88;97898.63;4991092;28;20396;-84
2022/04/07 06:59:13;;;;;;;2.30;0.50;;;;;;;10.52;67.93;97896.03;4989563;28;20479;-84
2022/04/07 07:01:42;;;;;;;2.63;0.68;;;;;;;10.45;68.86;97883.34;4971667;28;20049;-85
2022/04/07 07:04:11;;;;;;;1.20;0.70;;;;;;;10.43;68.85;97878.19;4987271;28;20338;-85
2022/04/07 07:06:41;;;;;;;0.25;0.25;;;;;;;10.46;69.21;97893.72;4999343;28;20041;-86
2022/04/07 07:09:10;;;;;;;1.95;0.63;;;;;;;10.42;69.09;97889.59;4987117;28;20811;-86
2022/04/07 07:11:55;;;;;;;0.70;0.63;;;;;;;10.46;69.35;97880.66;4973387;28;20061;-86
2022/04/07 07:14:23;;;;;;;1.60;0.50;;;;;;;10.43;69.40;97868.56;4997098;28;20046;-87
2022/04/07 07:16:56;;;;;;;2.65;0.50;;;;;;;10.40;69.70;97875.72;4998015;28;20053;-85
2022/04/07 07:19:28;;;;;;;2.22;0.40;;;;;;;10.38;70.10;97859.28;4986496;28;20096;-89
2022/04/07 07:21:56;;;;;;;2.58;0.40;;;;;;;10.38;70.15;97860.13;4985211;28;20472;-86
2022/04/07 07:27:12;;;;;;;1.60;0.32;;;;;;;10.48;69.54;97839.56;5003901;28;20528;-84
2022/04/07 07:29:41;;;;;;;0.70;0.30;;;;;;;10.58;69.14;97827.66;4996304;28;20634;-85
2022/04/07 07:32:18;;;;;;;2.72;0.40;;;;;;;10.72;68.89;97815.63;5006883;28;20046;-84
2022/04/07 07:34:44;;;;;;;0.60;0.43;;;;;;;10.83;68.53;97810.59;4992535;28;20072;-86
2022/04/07 07:37:12;;;;;;;0.75;0.30;;;;;;;10.93;67.56;97800.47;4991671;28;20156;-86
2022/04/07 07:39:39;;;;;;;0.55;0.20;;;;;;;11.07;67.33;97807.56;4989399;28;20627;-85
2022/04/07 07:42:08;;;;;;;1.38;0.20;;;;;;;11.15;67.08;97788.81;4989428;28;20126;-87
2022/04/07 07:44:35;;;;;;;1.90;0.32;;;;;;;11.23;67.47;97778.72;4966359;28;20068;-86
2022/04/07 07:47:04;;;;;;;1.60;0.35;;;;;;;11.29;67.00;97782.75;4989860;28;20060;-86
2022/04/07 07:49:33;;;;;;;0.30;0.30;;;;;;;11.22;67.67;97748.22;4990270;28;20077;-85
2022/04/07 07:52:00;;;;;;;0.17;0.17;;;;;;;11.19;68.02;97757.09;5029018;23;20021;-85
2022/04/07 07:54:26;;;;;;;3.97;1.75;;;;;;;11.14;68.75;97740.81;4969313;28;20813;-85
2022/04/07 07:56:55;;;;;;;0.38;0.20;;;;;;;11.11;69.09;97743.63;4971442;28;20045;-84
2022/04/07 07:59:23;;;;;;;0.10;0.10;;;;;;;11.04;69.38;97745.75;4984350;28;20104;-87
2022/04/07 08:02:00;;;;;;;0.95;0.20;;;;;;;10.99;70.76;97737.34;4970956;28;20046;-85
2022/04/07 08:04:28;;;;;;;1.08;0.20;;;;;;;10.92;71.73;97723.75;4985431;28;20046;-84
2022/04/07 08:06:54;;;;;;;0.40;0.10;;;;;;;10.86;72.40;97728.47;4980076;28;20042;-85
2022/04/07 08:19:43;;;;;;;0.60;0.30;;;;;;;10.17;80.43;97715.69;4978150;28;20136;-86
2022/04/07 08:22:10;;;;;;;0.20;0.20;;;;;;;9.99;82.48;97712.28;4990173;28;20060;-86
2022/04/07 08:24:37;;;;;;;0.20;0.20;;;;;;;9.83;84.22;97701.84;4970690;28;20484;-85
2022/04/07 08:29:48;;;;;;;0.55;0.30;;;;;;;9.71;87.84;97702.47;4988981;28;20112;-85
2022/04/07 08:32:15;;;;;;;2.05;0.30;;;;;;;9.73;87.48;97683.19;4978305;28;20046;-89
2022/04/07 08:34:42;;;;;;;3.75;0.40;;;;;;;9.70;88.38;97696.41;4998113;28;20058;-87
2022/04/07 08:37:21;;;;;;;3.35;0.32;;;;;;;9.70;89.48;97699.03;4958356;28;20104;-87
2022/04/07 08:39:49;;;;;;;0.98;0.60;;;;;;;9.70;89.92;97683.34;4988438;28;20065;-87
2022/04/07 08:42:22;;;;;;;0.60;0.43;;;;;;;9.64;90.42;97682.84;4972445;28;20050;-87
2022/04/07 08:44:50;;;;;;;0.30;0.20;;;;;;;9.58;92.57;97684.84;4961166;28;20050;-86
2022/04/07 08:47:18;;;;;;;1.27;0.28;;;;;;;9.54;94.27;97685.06;4970728;28;20129;-87
2022/04/07 08:49:45;;;;;;;0.38;0.38;;;;;;;9.49;95.58;97674.03;4985144;28;20068;-86
2022/04/07 08:52:13;;;;;;;0.30;0.30;;;;;;;9.44;96.56;97675.13;4978985;28;21443;-85
2022/04/07 08:54:44;;;;;;;0.22;0.22;;;;;;;9.41;97.00;97666.59;4949102;28;20046;-89
2022/04/07 08:57:14;;;;;;;0.75;0.75;;;;;;;9.39;97.43;97652.78;4971509;28;20061;-87
2022/04/07 08:59:44;;;;;;;0.82;0.30;;;;;;;9.36;97.24;97639.88;4981899;28;20054;-84
2022/04/07 09:02:14;;;;;;;0.63;0.20;;;;;;;9.25;98.54;97633.44;4935876;28;20046;-86
2022/04/07 09:04:45;;;;;;;0.57;0.38;;;;;;;9.08;100.00;97636.94;4962427;28;20071;-84
2022/04/07 09:07:15;;;;;;;1.00;0.40;;;;;;;8.93;100.00;97625.53;4970208;28;20046;-85
2022/04/07 09:09:46;;;;;;;2.30;0.73;;;;;;;8.85;100.00;97622.47;4966464;28;20152;-84
2022/04/07 09:12:27;;;;;;;2.00;0.30;;;;;;;8.71;100.00;97610.13;4969555;28;20441;-86
2022/04/07 09:15:02;;;;;;;0.88;0.50;;;;;;;8.71;100.00;97624.94;4957770;28;20062;-86
2022/04/07 09:17:59;;;;;;;1.40;0.47;;;;;;;8.79;100.00;97607.13;4975388;28;20067;-90
2022/04/07 09:23:12;;;;;;;1.58;0.50;;;;;;;8.76;100.00;97605.53;4965285;28;20046;-89
2022/04/07 09:25:49;;;;;;;0.20;0.20;;;;;;;8.74;100.00;97609.97;4978472;28;20122;-88
2022/04/07 09:28:33;;;;;;;4.38;0.30;;;;;;;8.76;100.00;97600.31;4990396;28;20316;-85
2022/04/07 09:31:01;;;;;;;0.10;0.10;;;;;;;8.84;100.00;97579.06;4988394;28;20032;-86
2022/04/07 09:33:30;;;;;;;1.55;0.30;;;;;;;8.91;100.00;97576.97;4993350;28;20042;-85
2022/04/07 09:36:19;;;;;;;0.40;0.40;;;;;;;8.92;100.00;97560.41;4997508;28;20046;-87
2022/04/07 09:38:54;;;;;;;0.77;0.22;;;;;;;8.84;100.00;97562.53;4991157;28;20054;-87
2022/04/07 09:41:23;;;;;;;0.63;0.63;;;;;;;8.79;100.00;97544.53;4990949;28;20123;-86
2022/04/07 09:43:58;;;;;;;0.40;0.40;;;;;;;8.68;100.00;97549.47;4960420;28;20046;-85
2022/04/07 09:46:33;;;;;;;0.20;0.20;;;;;;;8.64;100.00;97532.28;4955958;28;20142;-86
2022/04/07 09:49:12;;;;;;;1.38;0.30;;;;;;;8.64;100.00;97517.47;4972693;28;20053;-86
2022/04/07 09:51:44;;;;;;;0.20;0.20;;;;;;;8.72;100.00;97504.03;4942030;28;20070;-87
2022/04/07 09:54:11;;;;;;;0.20;0.20;;;;;;;8.83;100.00;97482.63;4957238;28;20138;-87
2022/04/07 09:56:39;;;;;;;0.22;0.22;;;;;;;8.93;100.00;97474.22;4970114;28;20049;-86
2022/04/07 09:59:08;;;;;;;1.75;0.20;;;;;;;9.03;100.00;97458.06;4991610;28;20131;-86
2022/04/07 10:01:38;;;;;;;0.30;0.22;;;;;;;9.08;100.00;97458.66;4964958;28;20050;-86
2022/04/07 10:06:55;;;;;;;1.45;0.20;;;;;;;9.37;100.00;97430.97;4987179;28;20107;-86
2022/04/07 10:09:23;;;;;;;0.68;0.38;;;;;;;9.50;100.00;97409.38;4995938;28;20058;-87
2022/04/07 10:11:51;;;;;;;0.28;0.28;;;;;;;9.63;100.00;97397.31;4968981;28;20089;-87
2022/04/07 10:14:35;;;;;;;1.13;0.20;;;;;;;9.81;100.00;97377.13;4974954;28;20042;-85
2022/04/07 10:17:14;;;;;;;0.68;0.25;;;;;;;9.91;100.00;97367.81;4992723;28;20073;-86
2022/04/07 10:19:57;;;;;;;0.20;0.20;;;;;;;10.04;100.00;97341.78;4975068;28;20059;-85
2022/04/07 10:32:14;;;;;;;0.47;0.10;;;;;;;10.19;94.69;97452.41;4977628;28;20751;-84
2022/04/07 10:37:56;;;;;;;1.60;0.25;;;;;;;8.34;91.31;97562.38;4984926;28;20683;-87
2022/04/07 10:40:56;;;;;;;4.13;0.50;;;;;;;7.17;97.99;97584.34;4976203;28;20049;-87
2022/04/07 10:43:46;;;;;;;0.70;0.20;;;;;;;6.21;100.00;97590.16;4974257;28;20042;-87
2022/04/07 10:46:27;;;;;;;1.85;0.20;;;;;;;5.75;100.00;97587.56;4975425;28;20042;-88
2022/04/07 10:49:06;;;;;;;0.30;0.30;;;;;;;5.45;100.00;97596.47;4984777;28;20042;-86
2022/04/07 10:54:05;;;;;;;0.73;0.32;;;;;;;5.19;100.00;97604.38;4998109;23;20074;-85
2022/04/07 10:56:35;;;;;;;0.45;0.05;;;;;;;5.12;100.00;97617.56;4959619;28;20142;-85
2022/04/07 11:02:12;;;;;;;2.63;0.20;;;;;;;4.94;100.00;97524.88;4971927;28;20038;-86
2022/04/07 11:05:04;;;;;;;2.22;0.10;;;;;;;4.92;100.00;97524.94;4979333;28;20049;-87
2022/04/07 11:07:51;;;;;;;0.75;0.20;;;;;;;4.95;100.00;97519.66;4956547;28;20113;-85
2022/04/07 11:10:47;;;;;;;1.38;0.10;;;;;;;5.10;100.00;97499.25;4958586;28;20113;-89
2022/04/07 11:13:16;;;;;;;0.10;0.10;;;;;;;5.19;100.00;97522.25;4960265;28;20042;-87
2022/04/07 11:15:52;;;;;;;0.55;0.52;;;;;;;5.23;100.00;97516.03;4976188;28;20050;-87
2022/04/07 11:18:38;;;;;;;1.17;0.20;;;;;;;5.34;100.00;97494.88;4961004;28;20046;-84
2022/04/07 11:21:11;;;;;;;2.25;0.60;;;;;;;5.53;100.00;97489.81;4956624;28;20058;-87
2022/04/07 11:23:53;;;;;;;3.08;0.93;;;;;;;5.53;100.00;97513.16;4973054;28;20126;-86
2022/04/07 11:26:27;;;;;;;0.75;0.20;;;;;;;5.55;100.00;97515.69;4977597;28;20445;-86
2022/04/07 11:29:17;;;;;;;0.35;0.20;;;;;;;5.55;100.00;97510.50;4978163;28;20053;-86
2022/04/07 11:31:51;;;;;;;0.38;0.22;;;;;;;5.69;100.00;97509.97;4975771;28;20527;-85
2022/04/07 11:34:50;;;;;;;2.22;1.05;;;;;;;5.76;100.00;97517.47;4956042;28;20045;-86
2022/04/07 11:37:21;;;;;;;2.60;0.20;;;;;;;5.85;100.00;97520.59;4971521;28;20065;-86
2022/04/07 11:40:03;;;;;;;0.10;0.10;;;;;;;6.06;100.00;97535.34;4960091;28;20038;-86
2022/04/07 11:42:32;;;;;;;0.13;0.13;;;;;;;6.42;100.00;97536.47;4958909;28;20678;-87
2022/04/07 11:45:03;;;;;;;0.63;0.17;;;;;;;6.70;100.00;97524.88;4975405;28;20089;-85
2022/04/07 11:47:37;;;;;;;0.55;0.20;;;;;;;7.21;100.00;97517.41;4979612;28;20104;-86
2022/04/07 11:50:14;;;;;;;0.38;0.20;;;;;;;7.38;94.42;97512.28;4959381;28;20072;-85
2022/04/07 11:52:50;;;;;;;0.10;0.10;;;;;;;7.48;97.40;97506.63;4959432;28;20054;-87
2022/04/07 11:55:28;;;;;;;0.45;0.20;;;;;;;7.62;97.09;97505.06;4959794;28;20054;-87
2022/04/07 11:58:02;;;;;;;0.15;0.15;;;;;;;8.80;93.46;97504.50;4956172;28;20077;-85
2022/04/07 12:00:35;;;;;;;0.40;0.25;;;;;;;10.42;79.16;97511.22;4978096;28;20054;-87
2022/04/07 12:03:07;;;;;;;1.08;0.10;;;;;;;10.73;77.83;97513.81;4943166;28;20053;-88
2022/04/07 12:05:43;;;;;;;0.20;0.17;;;;;;;10.79;75.86;97515.22;4977565;28;20108;-86
2022/04/07 12:08:32;;;;;;;0.22;0.20;;;;;;;10.99;76.30;97521.84;4975824;28;20053;-86
2022/04/07 12:11:04;;;;;;;0.25;0.10;;;;;;;11.21;75.18;97523.97;4975575;28;20058;-89
2022/04/07 12:13:36;;;;;;;0.43;0.20;;;;;;;12.44;67.25;97520.53;4978341;28;20046;-86
2022/04/07 12:16:11;;;;;;;0.70;0.30;;;;;;;13.81;60.22;97525.13;4963576;28;20053;-87
2022/04/07 12:18:40;;;;;;;0.57;0.10;;;;;;;14.61;57.83;97521.00;4958117;28;20057;-86
2022/04/07 12:21:14;;;;;;;1.92;0.82;;;;;;;14.54;57.48;97528.53;4978105;28;20053;-84
2022/04/07 12:23:41;;;;;;;0.80;0.30;;;;;;;15.18;56.40;97516.69;4975514;28;20046;-84
2022/04/07 12:26:11;;;;;;;0.25;0.10;;;;;;;15.54;52.92;97520.00;4975261;28;20069;-86
2022/04/07 12:28:42;;;;;;;1.50;0.50;;;;;;;13.99;56.05;97520.34;4971961;28;20053;-87
2022/04/07 12:31:22;;;;;;;0.15;0.15;;;;;;;14.58;54.99;97526.53;4959959;28;20038;-86
2022/04/07 12:33:50;;;;;;;1.65;0.32;;;;;;;15.27;51.94;97526.50;4978654;28;20461;-87
2022/04/07 12:36:29;;;;;;;0.80;0.20;;;;;;;15.06;52.44;97521.09;4967104;28;20814;-85
2022/04/07 12:39:06;;;;;;;0.88;0.30;;;;;;;15.36;51.18;97517.03;4962492;28;20159;-87
2022/04/07 12:41:51;;;;;;;0.88;0.22;;;;;;;14.53;51.65;97522.41;4962899;28;20790;-88
2022/04/07 12:45:00;;;;;;;1.27;0.35;;;;;;;14.12;52.71;97501.84;4965394;28;20636;-85
2022/04/07 12:47:27;;;;;;;2.45;0.30;;;;;;;15.42;51.56;97520.97;4968649;28;20054;-86
2022/04/07 12:50:01;;;;;;;1.60;0.30;;;;;;;16.41;48.28;97500.66;4968768;28;20060;-84
2022/04/07 12:52:43;;;;;;;0.80;0.40;;;;;;;16.77;45.18;97498.53;4965973;28;20046;-86
2022/04/07 12:55:17;;;;;;;0.57;0.30;;;;;;;16.83;46.58;97498.00;4958781;28;20177;-86